sensor_id;sensor_type;location;lat;lon;timestamp;P1;durP1;ratioP1;P2;durP2;ratioP2
46022;SDS011;31756;47.936;16.224;2023-02-01T00:00:10;296.53;;;140.17;;
46022;SDS011;31756;47.936;16.224;2023-02-01T00:02:36;206.83;;;145.03;;
46022;SDS011;31756;47.936;16.224;2023-02-01T00:05:09;3.60;;;2.10;;
46022;SDS011;31756;47.936;16.224;2023-02-01T00:07:35;8.67;;;7.80;;
46022;SDS011;31756;47.936;16.224;2023-02-01T00:10:03;4.43;;;2.97;;
46022;SDS011;31756;47.936;16.224;2023-02-01T00:12:30;127.77;;;101.93;;
46022;SDS011;31756;47.936;16.224;2023-02-01T00:14:56;11.43;;;7.37;;
46022;SDS011;31756;47.936;16.224;2023-02-01T00:17:22;301.40;;;121.33;;
46022;SDS011;31756;47.936;16.224;2023-02-01T00:19:47;52.80;;;37.70;;
46022;SDS011;31756;47.936;16.224;2023-02-01T00:22:13;80.60;;;48.00;;
46022;SDS011;31756;47.936;16.224;2023-02-01T00:24:39;418.07;;;160.33;;
46022;SDS011;31756;47.936;16.224;2023-02-01T00:27:04;364.07;;;130.93;;
46022;SDS011;31756;47.936;16.224;2023-02-01T00:29:30;313.80;;;159.87;;
46022;SDS011;31756;47.936;16.224;2023-02-01T00:31:56;2.90;;;2.00;;
46022;SDS011;31756;47.936;16.224;2023-02-01T00:34:21;1.50;;;1.37;;
46022;SDS011;31756;47.936;16.224;2023-02-01T00:36:47;25.60;;;17.70;;
46022;SDS011;31756;47.936;16.224;2023-02-01T00:39:13;1.53;;;1.43;;
46022;SDS011;31756;47.936;16.224;2023-02-01T00:41:39;2.30;;;1.60;;
46022;SDS011;31756;47.936;16.224;2023-02-01T00:44:05;332.20;;;235.20;;
46022;SDS011;31756;47.936;16.224;2023-02-01T00:46:31;2.40;;;1.80;;
46022;SDS011;31756;47.936;16.224;2023-02-01T00:48:57;1.80;;;1.63;;
46022;SDS011;31756;47.936;16.224;2023-02-01T00:51:24;1.60;;;1.50;;
46022;SDS011;31756;47.936;16.224;2023-02-01T00:53:51;2.77;;;2.23;;
46022;SDS011;31756;47.936;16.224;2023-02-01T00:56:18;6.97;;;5.70;;
46022;SDS011;31756;47.936;16.224;2023-02-01T00:58:44;81.13;;;73.80;;
46022;SDS011;31756;47.936;16.224;2023-02-01T01:01:10;330.37;;;169.67;;
46022;SDS011;31756;47.936;16.224;2023-02-01T01:03:45;1.53;;;1.43;;
46022;SDS011;31756;47.936;16.224;2023-02-01T01:06:15;170.67;;;101.80;;
46022;SDS011;31756;47.936;16.224;2023-02-01T01:08:42;1.50;;;1.40;;
46022;SDS011;31756;47.936;16.224;2023-02-01T01:11:10;421.57;;;176.97;;
46022;SDS011;31756;47.936;16.224;2023-02-01T01:13:41;438.80;;;185.03;;
46022;SDS011;31756;47.936;16.224;2023-02-01T01:16:07;67.37;;;53.13;;
46022;SDS011;31756;47.936;16.224;2023-02-01T01:18:34;220.47;;;102.57;;
46022;SDS011;31756;47.936;16.224;2023-02-01T01:21:01;3.63;;;1.50;;
46022;SDS011;31756;47.936;16.224;2023-02-01T01:23:28;1.63;;;1.53;;
46022;SDS011;31756;47.936;16.224;2023-02-01T01:25:54;281.40;;;102.35;;
46022;SDS011;31756;47.936;16.224;2023-02-01T01:28:20;427.60;;;171.30;;
46022;SDS011;31756;47.936;16.224;2023-02-01T01:30:45;435.27;;;178.27;;
46022;SDS011;31756;47.936;16.224;2023-02-01T01:33:15;439.50;;;192.80;;
46022;SDS011;31756;47.936;16.224;2023-02-01T01:35:41;449.00;;;202.10;;
46022;SDS011;31756;47.936;16.224;2023-02-01T01:38:09;440.97;;;191.13;;
46022;SDS011;31756;47.936;16.224;2023-02-01T01:40:36;438.87;;;185.27;;
46022;SDS011;31756;47.936;16.224;2023-02-01T01:43:03;444.23;;;188.77;;
46022;SDS011;31756;47.936;16.224;2023-02-01T01:45:35;433.57;;;180.63;;
46022;SDS011;31756;47.936;16.224;2023-02-01T01:48:21;455.70;;;244.87;;
46022;SDS011;31756;47.936;16.224;2023-02-01T01:50:54;465.63;;;300.90;;
46022;SDS011;31756;47.936;16.224;2023-02-01T01:53:25;455.90;;;256.15;;
46022;SDS011;31756;47.936;16.224;2023-02-01T01:55:53;455.67;;;247.32;;
46022;SDS011;31756;47.936;16.224;2023-02-01T01:58:21;448.65;;;225.30;;
46022;SDS011;31756;47.936;16.224;2023-02-01T02:00:50;443.55;;;214.38;;
46022;SDS011;31756;47.936;16.224;2023-02-01T02:03:21;440.52;;;202.57;;
46022;SDS011;31756;47.936;16.224;2023-02-01T02:05:50;442.92;;;207.80;;
46022;SDS011;31756;47.936;16.224;2023-02-01T02:08:18;336.25;;;205.13;;
46022;SDS011;31756;47.936;16.224;2023-02-01T02:10:46;440.98;;;231.63;;
46022;SDS011;31756;47.936;16.224;2023-02-01T02:13:26;420.98;;;171.52;;
46022;SDS011;31756;47.936;16.224;2023-02-01T02:30:17;1.00;;;0.90;;
46022;SDS011;31756;47.936;16.224;2023-02-01T02:41:03;170.63;;;111.23;;
46022;SDS011;31756;47.936;16.224;2023-02-01T02:43:44;10.03;;;7.57;;
46022;SDS011;31756;47.936;16.224;2023-02-01T02:46:38;30.40;;;28.60;;
46022;SDS011;31756;47.936;16.224;2023-02-01T02:49:43;2.83;;;2.63;;
46022;SDS011;31756;47.936;16.224;2023-02-01T02:52:38;373.93;;;133.47;;
46022;SDS011;31756;47.936;16.224;2023-02-01T02:55:30;289.43;;;122.90;;
46022;SDS011;31756;47.936;16.224;2023-02-01T03:03:35;97.47;;;40.53;;
46022;SDS011;31756;47.936;16.224;2023-02-01T03:08:47;88.07;;;38.47;;
